createdAt,value
2023-02-05T00:00:05.894Z,8.92
2023-02-05T00:02:33.019Z,9.07
2023-02-05T00:04:59.824Z,9.18
2023-02-05T00:07:26.683Z,9.05
2023-02-05T00:09:53.224Z,9.07
2023-02-05T00:12:19.764Z,8.96
2023-02-05T00:14:46.232Z,9.29
2023-02-05T00:17:12.759Z,9.44
2023-02-05T00:19:39.221Z,8.99
2023-02-05T00:22:05.868Z,8.97
2023-02-05T00:24:32.661Z,8.78
2023-02-05T00:26:59.276Z,9.10
2023-02-05T00:29:26.261Z,8.97
2023-02-05T00:31:53.060Z,8.56
2023-02-05T00:34:20.073Z,8.94
2023-02-05T00:36:46.556Z,8.96
2023-02-05T00:39:14.245Z,9.03
2023-02-05T00:41:40.774Z,9.18
2023-02-05T00:44:07.307Z,9.10
2023-02-05T00:46:33.762Z,9.31
2023-02-05T00:49:00.345Z,9.43
2023-02-05T00:51:26.834Z,9.26
2023-02-05T00:53:53.572Z,9.07
2023-02-05T00:56:20.127Z,9.09
2023-02-05T00:58:48.953Z,9.23
2023-02-05T01:01:16.048Z,8.95
2023-02-05T01:03:42.756Z,8.86
2023-02-05T01:06:09.383Z,8.90
2023-02-05T01:08:36.015Z,8.86
2023-02-05T01:11:07.171Z,8.66
2023-02-05T01:13:34.136Z,8.57
2023-02-05T01:16:00.765Z,8.38
2023-02-05T01:18:27.860Z,7.88
2023-02-05T01:20:54.480Z,7.84
2023-02-05T01:23:21.038Z,8.25
2023-02-05T01:25:47.945Z,8.39
2023-02-05T01:28:14.489Z,8.28
2023-02-05T01:30:41.242Z,8.45
2023-02-05T01:33:07.863Z,8.54
2023-02-05T01:35:34.882Z,8.46
2023-02-05T01:38:01.570Z,8.12
2023-02-05T01:40:28.140Z,8.62
2023-02-05T01:42:54.715Z,8.74
2023-02-05T01:45:32.628Z,8.99
2023-02-05T01:48:04.310Z,8.98
2023-02-05T01:50:38.564Z,8.76
2023-02-05T01:53:32.263Z,9.21
2023-02-05T01:56:02.253Z,9.38
2023-02-05T01:58:32.587Z,8.99
2023-02-05T02:00:59.594Z,8.88
2023-02-05T02:03:30.630Z,9.24
2023-02-05T02:05:57.542Z,8.99
2023-02-05T02:08:24.223Z,8.46
2023-02-05T02:10:52.226Z,8.72
2023-02-05T02:13:19.934Z,8.72
2023-02-05T02:15:47.390Z,9.06
2023-02-05T02:18:26.097Z,9.18
2023-02-05T02:21:28.402Z,9.39
2023-02-05T02:24:16.698Z,9.52
2023-02-05T02:27:06.142Z,9.54
2023-02-05T02:29:57.930Z,9.69
2023-02-05T02:32:40.807Z,9.82
2023-02-05T02:35:12.615Z,9.95
2023-02-05T02:37:55.904Z,9.82
2023-02-05T02:40:27.623Z,9.75
2023-02-05T02:43:03.463Z,10.02
2023-02-05T02:45:33.869Z,9.89
2023-02-05T02:48:01.086Z,9.92
2023-02-05T02:50:34.851Z,9.68
2023-02-05T02:53:27.200Z,9.40
2023-02-05T02:55:55.204Z,9.40
2023-02-05T02:58:25.751Z,9.56
2023-02-05T03:00:53.625Z,9.66
2023-02-05T03:03:21.526Z,9.77
2023-02-05T03:05:49.661Z,9.92
2023-02-05T03:08:33.524Z,9.36
2023-02-05T03:11:03.485Z,8.87
2023-02-05T03:13:30.430Z,8.98
2023-02-05T03:15:57.041Z,9.20
2023-02-05T03:18:24.710Z,9.28
2023-02-05T03:21:03.645Z,8.84
2023-02-05T03:23:30.247Z,9.14
2023-02-05T03:25:56.761Z,8.95
2023-02-05T03:28:23.522Z,9.00
2023-02-05T03:31:20.666Z,9.31
2023-02-05T03:33:55.006Z,9.26
2023-02-05T03:36:49.339Z,9.51
2023-02-05T03:40:01.978Z,9.72
2023-02-05T03:42:56.903Z,9.51
2023-02-05T03:45:53.065Z,9.56
2023-02-05T03:48:38.397Z,9.83
2023-02-05T03:51:17.741Z,9.73
2023-02-05T03:54:26.597Z,9.69
2023-02-05T03:57:02.308Z,8.94
2023-02-05T03:59:29.004Z,8.51
2023-02-05T04:01:56.049Z,8.09
2023-02-05T04:04:22.941Z,8.21
2023-02-05T04:06:51.911Z,8.62
2023-02-05T04:09:18.847Z,8.14
2023-02-05T04:11:45.610Z,8.30
2023-02-05T04:14:12.096Z,8.56
2023-02-05T04:16:39.133Z,8.86
2023-02-05T04:19:05.656Z,8.79
2023-02-05T04:21:32.276Z,9.20
2023-02-05T04:23:58.922Z,9.30
2023-02-05T04:26:25.421Z,9.37
2023-02-05T04:28:52.003Z,8.96
2023-02-05T04:31:18.587Z,9.18
2023-02-05T04:33:45.327Z,9.43
2023-02-05T04:36:12.203Z,9.62
2023-02-05T04:38:39.339Z,9.50
2023-02-05T04:41:08.030Z,9.77
2023-02-05T04:43:34.577Z,9.75
2023-02-05T04:46:08.439Z,9.74
2023-02-05T04:48:44.017Z,9.57
2023-02-05T04:51:12.821Z,9.44
2023-02-05T04:53:39.973Z,9.55
2023-02-05T04:56:14.591Z,9.69
2023-02-05T04:58:41.240Z,9.57
2023-02-05T05:01:16.610Z,9.71
2023-02-05T05:03:43.288Z,8.92
2023-02-05T05:06:10.402Z,9.16
2023-02-05T05:08:37.461Z,9.10
2023-02-05T05:11:22.149Z,8.62
2023-02-05T05:13:49.768Z,7.30
2023-02-05T05:16:16.289Z,7.49
2023-02-05T05:18:43.128Z,7.92
2023-02-05T05:21:10.047Z,7.95
2023-02-05T05:23:37.679Z,8.25
2023-02-05T05:26:06.665Z,8.21
2023-02-05T05:28:34.811Z,8.03
2023-02-05T05:31:14.409Z,8.43
2023-02-05T05:33:41.300Z,7.93
2023-02-05T05:36:08.138Z,8.33
2023-02-05T05:38:34.932Z,8.39
2023-02-05T05:41:19.903Z,8.55
2023-02-05T05:43:46.527Z,8.63
2023-02-05T05:46:22.736Z,8.95
2023-02-05T05:49:00.317Z,9.22
2023-02-05T05:51:28.216Z,9.24
2023-02-05T05:53:55.192Z,9.47
2023-02-05T05:56:21.926Z,9.67
2023-02-05T05:58:49.152Z,9.40
2023-02-05T06:01:17.509Z,9.01
2023-02-05T06:03:44.132Z,9.47
2023-02-05T06:06:10.955Z,9.77
2023-02-05T06:08:37.480Z,9.73
2023-02-05T06:11:04.089Z,9.88
2023-02-05T06:13:30.849Z,9.64
2023-02-05T06:15:57.740Z,8.91
2023-02-05T06:18:24.308Z,9.22
2023-02-05T06:20:51.074Z,9.14
2023-02-05T06:23:17.900Z,8.16
2023-02-05T06:25:44.504Z,8.89
2023-02-05T06:28:11.811Z,8.76
2023-02-05T06:30:38.557Z,9.09
2023-02-05T06:33:05.487Z,9.43
2023-02-05T06:35:32.345Z,9.26
2023-02-05T06:37:59.059Z,8.62
2023-02-05T06:40:28.049Z,8.10
2023-02-05T06:42:55.169Z,8.64
2023-02-05T06:45:22.113Z,8.72
2023-02-05T06:47:49.089Z,9.08
2023-02-05T06:50:15.803Z,9.15
2023-02-05T06:52:42.386Z,9.17
2023-02-05T06:55:09.123Z,9.51
2023-02-05T06:57:35.652Z,9.01
2023-02-05T07:00:02.208Z,9.58
2023-02-05T07:02:28.686Z,9.42
2023-02-05T07:04:55.212Z,9.46
2023-02-05T07:07:21.774Z,9.10
2023-02-05T07:09:48.786Z,9.34
2023-02-05T07:12:15.293Z,9.27
2023-02-05T07:14:42.276Z,9.07
2023-02-05T07:17:11.143Z,8.60
2023-02-05T07:19:37.762Z,8.69
2023-02-05T07:22:05.097Z,9.04
2023-02-05T07:24:31.789Z,8.76
2023-02-05T07:26:58.354Z,9.21
2023-02-05T07:29:28.012Z,9.70
2023-02-05T07:31:54.555Z,9.44
2023-02-05T07:34:21.073Z,9.81
2023-02-05T07:36:51.087Z,9.55
2023-02-05T07:39:18.379Z,9.28
2023-02-05T07:41:44.967Z,9.22
2023-02-05T07:44:11.635Z,9.22
2023-02-05T07:46:38.233Z,8.88
2023-02-05T07:49:04.807Z,9.17
2023-02-05T07:51:32.658Z,8.94
2023-02-05T07:53:59.204Z,8.49
2023-02-05T07:56:25.861Z,9.43
2023-02-05T07:58:52.426Z,8.87
2023-02-05T08:01:19.062Z,9.22
2023-02-05T08:03:45.611Z,8.84
2023-02-05T08:06:15.123Z,9.38
2023-02-05T08:08:41.760Z,9.46
2023-02-05T08:11:08.308Z,8.76
2023-02-05T08:13:35.023Z,8.93
2023-02-05T08:16:05.934Z,8.59
2023-02-05T08:18:32.577Z,8.90
2023-02-05T08:20:59.537Z,9.25
2023-02-05T08:23:26.327Z,9.33
2023-02-05T08:25:57.162Z,9.27
2023-02-05T08:28:25.013Z,9.18
2023-02-05T08:30:51.770Z,9.29
2023-02-05T08:33:18.644Z,9.36
2023-02-05T08:35:45.510Z,8.96
2023-02-05T08:38:12.101Z,9.32
2023-02-05T08:40:38.627Z,9.14
2023-02-05T08:43:05.218Z,9.25
2023-02-05T08:45:31.889Z,8.91
2023-02-05T08:47:58.539Z,8.88
2023-02-05T08:50:25.263Z,8.70
2023-02-05T08:52:51.782Z,8.94
2023-02-05T08:55:18.320Z,8.81
2023-02-05T08:57:45.219Z,8.50
2023-02-05T09:00:13.019Z,8.81
2023-02-05T09:02:42.241Z,9.04
2023-02-05T09:05:09.826Z,8.56
2023-02-05T09:07:41.322Z,8.88
2023-02-05T09:10:09.718Z,9.19
2023-02-05T09:12:36.555Z,9.43
2023-02-05T09:15:03.264Z,9.82
2023-02-05T09:17:29.856Z,10.21
2023-02-05T09:19:56.649Z,10.23
2023-02-05T09:22:23.285Z,10.46
2023-02-05T09:24:49.874Z,10.16
2023-02-05T09:27:16.350Z,9.16
2023-02-05T09:29:42.909Z,9.15
2023-02-05T09:32:09.626Z,9.15
2023-02-05T09:34:36.189Z,9.14
2023-02-05T09:37:02.958Z,8.75
2023-02-05T09:40:17.313Z,9.15
2023-02-05T09:42:33.042Z,8.95
2023-02-05T09:45:38.162Z,9.03
2023-02-05T09:48:08.746Z,9.01
2023-02-05T09:50:36.596Z,8.97
2023-02-05T09:53:06.577Z,8.81
2023-02-05T09:55:36.626Z,8.93
2023-02-05T09:58:07.275Z,9.07
2023-02-05T10:01:01.780Z,8.80
2023-02-05T10:03:34.320Z,8.75
2023-02-05T10:06:03.934Z,8.96
2023-02-05T10:08:41.010Z,9.07
2023-02-05T10:11:18.508Z,9.24
2023-02-05T10:13:47.510Z,9.43
2023-02-05T10:16:20.025Z,9.44
2023-02-05T10:19:13.421Z,9.29
2023-02-05T10:22:00.656Z,9.39
2023-02-05T10:24:49.035Z,9.62
2023-02-05T10:27:26.857Z,9.62
2023-02-05T10:30:04.054Z,9.68
2023-02-05T10:32:52.955Z,9.30
2023-02-05T10:35:33.347Z,9.14
2023-02-05T10:38:01.168Z,9.28
2023-02-05T10:40:31.252Z,9.10
2023-02-05T10:43:05.649Z,9.16
2023-02-05T10:45:36.617Z,8.73
2023-02-05T10:48:09.520Z,9.57
2023-02-05T10:51:01.687Z,9.18
2023-02-05T10:53:29.068Z,9.29
2023-02-05T10:55:57.601Z,9.36
2023-02-05T10:58:37.030Z,9.20
2023-02-05T11:01:05.467Z,9.31
2023-02-05T11:03:33.202Z,9.37
2023-02-05T11:05:59.691Z,9.11
2023-02-05T11:08:45.160Z,9.27
2023-02-05T11:11:31.720Z,9.07
2023-02-05T11:14:06.402Z,9.44
2023-02-05T11:16:41.623Z,9.30
2023-02-05T11:19:24.067Z,9.46
2023-02-05T11:21:56.722Z,9.60
2023-02-05T11:24:33.895Z,9.30
2023-02-05T11:27:33.800Z,9.01
2023-02-05T11:30:28.639Z,9.80
2023-02-05T11:33:16.413Z,9.35
2023-02-05T11:35:56.271Z,9.36
2023-02-05T11:38:35.076Z,9.54
2023-02-05T11:41:05.708Z,9.50
2023-02-05T11:43:38.230Z,9.34
2023-02-05T11:46:08.518Z,9.36
2023-02-05T11:48:57.414Z,9.79
2023-02-05T11:51:36.171Z,9.46
2023-02-05T11:54:10.537Z,9.90
2023-02-05T11:56:37.039Z,10.28
2023-02-05T11:59:18.475Z,10.10
2023-02-05T12:01:45.797Z,10.32
2023-02-05T12:04:12.487Z,10.36
2023-02-05T12:06:44.927Z,9.51
2023-02-05T12:09:14.736Z,9.91
2023-02-05T12:12:06.653Z,9.66
2023-02-05T12:14:40.771Z,9.52
2023-02-05T12:17:22.554Z,9.31
2023-02-05T12:19:55.102Z,9.24
2023-02-05T12:23:00.095Z,9.46
2023-02-05T12:25:30.137Z,9.46
2023-02-05T12:28:30.271Z,9.68
2023-02-05T12:31:22.269Z,9.67
2023-02-05T12:34:07.704Z,9.36
2023-02-05T12:36:47.114Z,9.19
2023-02-05T12:39:36.097Z,9.22
2023-02-05T12:42:24.565Z,9.41
2023-02-05T12:45:06.402Z,8.88
2023-02-05T12:47:45.021Z,8.84
2023-02-05T12:50:45.968Z,9.09
2023-02-05T12:53:28.216Z,8.60
2023-02-05T12:56:03.990Z,8.76
2023-02-05T12:58:37.661Z,8.46
2023-02-05T13:01:09.059Z,8.97
2023-02-05T13:03:39.129Z,8.79
2023-02-05T13:06:26.894Z,8.66
2023-02-05T13:08:58.659Z,8.52
2023-02-05T13:11:39.529Z,8.73
2023-02-05T13:14:14.186Z,9.02
2023-02-05T13:16:56.461Z,8.64
2023-02-05T13:19:30.916Z,8.99
2023-02-05T13:22:18.004Z,8.78
2023-02-05T13:25:11.397Z,9.14
2023-02-05T13:28:02.129Z,9.07
2023-02-05T13:30:35.309Z,9.15
2023-02-05T13:33:05.448Z,8.89
2023-02-05T13:35:40.211Z,9.21
2023-02-05T13:38:35.553Z,9.31
2023-02-05T13:41:36.953Z,9.29
2023-02-05T13:44:31.372Z,9.24
2023-02-05T13:47:18.187Z,8.89
2023-02-05T13:49:59.153Z,9.14
2023-02-05T13:52:53.269Z,9.04
2023-02-05T13:55:24.973Z,8.98
2023-02-05T13:58:11.870Z,8.92
2023-02-05T14:00:41.324Z,8.98
2023-02-05T14:03:09.754Z,9.33
2023-02-05T14:05:38.392Z,8.68
2023-02-05T14:08:05.897Z,8.55
2023-02-05T14:10:40.151Z,8.34
2023-02-05T14:13:34.260Z,8.54
2023-02-05T14:16:26.099Z,8.43
2023-02-05T14:19:02.131Z,8.44
2023-02-05T14:21:31.894Z,8.32
2023-02-05T14:24:35.858Z,8.35
2023-02-05T14:27:02.414Z,8.80
2023-02-05T14:29:47.102Z,8.53
2023-02-05T14:32:39.091Z,8.51
2023-02-05T14:35:05.724Z,8.44
2023-02-05T14:37:40.968Z,8.26
2023-02-05T14:40:23.041Z,8.27
2023-02-05T14:42:57.098Z,8.32
2023-02-05T14:45:29.058Z,8.44
2023-02-05T14:47:56.498Z,8.47
2023-02-05T14:50:28.773Z,8.56
2023-02-05T14:53:03.200Z,8.41
2023-02-05T14:55:36.283Z,8.60
2023-02-05T14:58:05.971Z,8.73
2023-02-05T15:00:32.610Z,8.80
2023-02-05T15:03:05.328Z,8.70
2023-02-05T15:05:41.232Z,9.00
2023-02-05T15:08:36.505Z,9.24
2023-02-05T15:11:21.960Z,9.54
2023-02-05T15:14:19.696Z,9.31
2023-02-05T15:16:47.290Z,8.98
2023-02-05T15:19:15.656Z,8.96
2023-02-05T15:21:51.185Z,9.25
2023-02-05T15:24:24.914Z,9.03
2023-02-05T15:27:07.686Z,9.30
2023-02-05T15:29:38.249Z,9.13
2023-02-05T15:32:19.437Z,9.20
2023-02-05T15:34:52.651Z,9.36
2023-02-05T15:37:25.879Z,9.43
2023-02-05T15:40:11.250Z,9.54
2023-02-05T15:42:39.965Z,9.71
2023-02-05T15:45:44.818Z,9.73
2023-02-05T15:48:12.959Z,9.49
2023-02-05T15:50:47.721Z,9.52
2023-02-05T15:53:33.143Z,9.73
2023-02-05T15:56:12.793Z,9.31
2023-02-05T15:58:46.183Z,9.60
2023-02-05T16:01:22.534Z,9.70
2023-02-05T16:03:49.302Z,9.11
2023-02-05T16:06:20.739Z,9.29
2023-02-05T16:08:48.657Z,9.66
2023-02-05T16:11:33.064Z,9.40
2023-02-05T16:14:10.653Z,9.41
2023-02-05T16:16:40.470Z,9.16
2023-02-05T16:19:15.150Z,9.10
2023-02-05T16:21:49.376Z,9.61
2023-02-05T16:24:26.663Z,9.78
2023-02-05T16:27:01.057Z,9.46
2023-02-05T16:29:46.118Z,9.17
2023-02-05T16:32:42.392Z,9.09
2023-02-05T16:35:40.771Z,9.74
2023-02-05T16:38:14.698Z,9.59
2023-02-05T16:40:43.716Z,9.67
2023-02-05T16:43:30.832Z,9.90
2023-02-05T16:46:06.732Z,10.12
2023-02-05T16:48:36.940Z,10.27
2023-02-05T16:51:04.399Z,9.95
2023-02-05T16:53:33.714Z,10.06
2023-02-05T16:56:22.205Z,10.24
2023-02-05T16:58:51.925Z,10.13
2023-02-05T17:01:27.840Z,10.25
2023-02-05T17:03:55.256Z,10.35
2023-02-05T17:06:22.469Z,9.54
2023-02-05T17:08:55.176Z,9.45
2023-02-05T17:11:48.080Z,9.39
2023-02-05T17:14:29.939Z,9.27
2023-02-05T17:17:00.995Z,9.28
2023-02-05T17:19:32.463Z,8.68
2023-02-05T17:22:14.479Z,9.14
2023-02-05T17:24:47.955Z,9.13
2023-02-05T17:27:33.301Z,8.81
2023-02-05T17:30:00.915Z,8.72
2023-02-05T17:32:28.461Z,8.51
2023-02-05T17:34:55.305Z,8.31
2023-02-05T17:37:21.943Z,8.46
2023-02-05T17:39:49.835Z,8.67
2023-02-05T17:42:22.144Z,8.78
2023-02-05T17:44:49.448Z,8.51
2023-02-05T17:47:16.511Z,8.10
2023-02-05T17:49:43.352Z,8.59
2023-02-05T17:52:10.389Z,8.38
2023-02-05T17:54:36.939Z,8.28
2023-02-05T17:57:22.268Z,8.23
2023-02-05T17:59:49.288Z,8.49
2023-02-05T18:02:16.621Z,8.66
2023-02-05T18:04:44.818Z,8.60
2023-02-05T18:07:58.051Z,8.26
2023-02-05T18:10:28.197Z,8.67
2023-02-05T18:12:56.085Z,8.50
2023-02-05T18:15:23.857Z,8.64
2023-02-05T18:17:50.879Z,8.78
2023-02-05T18:20:19.672Z,8.90
2023-02-05T18:22:47.682Z,9.01
2023-02-05T18:25:14.306Z,8.68
2023-02-05T18:27:40.876Z,9.01
2023-02-05T18:30:08.379Z,9.01
2023-02-05T18:32:34.912Z,9.20
2023-02-05T18:35:01.457Z,9.48
2023-02-05T18:37:28.058Z,9.49
2023-02-05T18:39:54.804Z,9.47
2023-02-05T18:42:22.321Z,9.53
2023-02-05T18:44:49.227Z,9.64
2023-02-05T18:47:15.798Z,9.60
2023-02-05T18:49:42.405Z,9.40
2023-02-05T18:52:10.252Z,9.72
2023-02-05T18:54:36.848Z,10.00
2023-02-05T18:57:03.605Z,9.97
2023-02-05T18:59:30.141Z,9.93
2023-02-05T19:01:56.894Z,10.22
2023-02-05T19:04:24.795Z,10.29
2023-02-05T19:06:54.928Z,10.15
2023-02-05T19:09:23.002Z,10.34
2023-02-05T19:11:50.143Z,10.12
2023-02-05T19:14:19.243Z,10.19
2023-02-05T19:16:47.180Z,10.13
2023-02-05T19:19:20.165Z,10.22
2023-02-05T19:21:49.032Z,9.71
2023-02-05T19:24:17.357Z,9.81
2023-02-05T19:26:44.206Z,9.96
2023-02-05T19:29:16.381Z,10.07
2023-02-05T19:31:44.362Z,9.42
2023-02-05T19:34:11.688Z,9.37
2023-02-05T19:36:38.901Z,9.37
2023-02-05T19:39:07.371Z,9.31
2023-02-05T19:41:35.494Z,9.20
2023-02-05T19:44:04.722Z,9.45
2023-02-05T19:46:34.998Z,9.69
2023-02-05T19:49:07.111Z,9.41
2023-02-05T19:51:34.167Z,9.01
2023-02-05T19:54:03.121Z,8.45
2023-02-05T19:56:30.519Z,8.60
2023-02-05T19:58:57.163Z,8.49
2023-02-05T20:01:26.707Z,8.16
2023-02-05T20:03:58.568Z,8.49
2023-02-05T20:06:28.072Z,8.45
2023-02-05T20:08:55.040Z,8.85
2023-02-05T20:11:21.663Z,8.67
2023-02-05T20:13:48.407Z,8.47
2023-02-05T20:16:18.522Z,9.09
2023-02-05T20:18:45.535Z,9.02
2023-02-05T20:21:14.533Z,8.58
2023-02-05T20:23:42.697Z,8.72
2023-02-05T20:26:10.497Z,8.86
2023-02-05T20:29:00.631Z,8.10
2023-02-05T20:31:35.396Z,8.70
2023-02-05T20:34:09.432Z,8.39
2023-02-05T20:36:36.840Z,8.53
2023-02-05T20:39:06.220Z,8.70
2023-02-05T20:41:33.680Z,8.77
2023-02-05T20:44:03.412Z,8.87
2023-02-05T20:46:30.960Z,8.83
2023-02-05T20:48:58.855Z,8.67
2023-02-05T20:51:25.386Z,8.97
2023-02-05T20:53:56.998Z,9.00
2023-02-05T20:56:24.894Z,9.08
2023-02-05T20:58:51.957Z,9.07
2023-02-05T21:01:20.833Z,9.28
2023-02-05T21:03:50.354Z,9.21
2023-02-05T21:06:18.377Z,9.59
2023-02-05T21:08:46.557Z,9.66
2023-02-05T21:11:16.573Z,9.57
2023-02-05T21:13:44.980Z,9.82
2023-02-05T21:16:18.003Z,9.29
2023-02-05T21:18:47.600Z,9.46
2023-02-05T21:21:24.416Z,9.45
2023-02-05T21:23:59.391Z,9.51
2023-02-05T21:26:31.340Z,9.46
2023-02-05T21:29:04.917Z,9.22
2023-02-05T21:31:35.288Z,9.26
2023-02-05T21:34:02.619Z,9.52
2023-02-05T21:36:29.687Z,9.20
2023-02-05T21:38:56.708Z,8.88
2023-02-05T21:41:23.489Z,8.53
2023-02-05T21:43:57.547Z,9.18
2023-02-05T21:46:25.490Z,8.69
2023-02-05T21:48:54.304Z,8.67
2023-02-05T21:51:24.446Z,8.66
2023-02-05T21:53:57.094Z,8.44
2023-02-05T21:56:25.430Z,8.52
2023-02-05T21:58:51.963Z,8.31
2023-02-05T22:01:21.399Z,8.72
2023-02-05T22:03:52.870Z,8.81
2023-02-05T22:06:20.214Z,8.65
2023-02-05T22:08:48.227Z,8.13
2023-02-05T22:11:15.081Z,8.40
2023-02-05T22:13:43.410Z,8.18
2023-02-05T22:16:11.742Z,8.24
2023-02-05T22:18:38.413Z,8.32
2023-02-05T22:21:06.843Z,8.42
2023-02-05T22:23:33.388Z,7.68
2023-02-05T22:26:00.078Z,8.21
2023-02-05T22:28:26.775Z,8.20
2023-02-05T22:31:06.712Z,8.31
2023-02-05T22:33:36.669Z,8.31
2023-02-05T22:36:03.844Z,8.17
2023-02-05T22:38:32.174Z,8.25
2023-02-05T22:40:59.418Z,8.17
2023-02-05T22:43:27.354Z,8.27
2023-02-05T22:45:53.849Z,8.19
2023-02-05T22:48:20.439Z,8.18
2023-02-05T22:50:47.450Z,8.02
2023-02-05T22:53:13.991Z,8.09
2023-02-05T22:55:40.510Z,8.00
2023-02-05T22:58:07.400Z,7.95
2023-02-05T23:00:34.280Z,7.63
2023-02-05T23:03:01.008Z,7.78
2023-02-05T23:05:31.403Z,7.56
2023-02-05T23:07:58.551Z,7.54
2023-02-05T23:10:25.047Z,7.52
2023-02-05T23:12:51.527Z,7.55
2023-02-05T23:15:18.151Z,7.38
2023-02-05T23:17:44.648Z,7.63
2023-02-05T23:20:11.714Z,7.65
2023-02-05T23:22:38.238Z,7.69
2023-02-05T23:25:05.611Z,7.49
2023-02-05T23:27:33.450Z,7.55
2023-02-05T23:30:00.213Z,7.47
2023-02-05T23:32:26.828Z,7.37
2023-02-05T23:34:53.413Z,7.42
2023-02-05T23:37:20.099Z,7.44
2023-02-05T23:39:46.621Z,7.37
2023-02-05T23:42:13.136Z,7.28
2023-02-05T23:44:39.633Z,7.37
2023-02-05T23:47:06.131Z,7.37
2023-02-05T23:49:32.606Z,7.31
2023-02-05T23:51:59.177Z,7.28
2023-02-05T23:54:26.290Z,7.19
2023-02-05T23:56:52.938Z,7.28
2023-02-05T23:59:19.492Z,7.06
